sensor_id;sensor_type;location;lat;lon;timestamp;P1;durP1;ratioP1;P2;durP2;ratioP2
42670;SDS011;28283;55.426;37.756;2023-02-12T00:02:00;5.68;;;4.10;;
42670;SDS011;28283;55.426;37.756;2023-02-12T00:07:01;3.95;;;3.25;;
42670;SDS011;28283;55.426;37.756;2023-02-12T00:12:02;2.92;;;2.35;;
42670;SDS011;28283;55.426;37.756;2023-02-12T00:17:03;7.95;;;2.78;;
42670;SDS011;28283;55.426;37.756;2023-02-12T00:22:03;4.85;;;2.60;;
42670;SDS011;28283;55.426;37.756;2023-02-12T00:27:04;4.57;;;3.17;;
42670;SDS011;28283;55.426;37.756;2023-02-12T00:32:04;4.53;;;3.28;;
42670;SDS011;28283;55.426;37.756;2023-02-12T00:37:05;6.68;;;4.05;;
42670;SDS011;28283;55.426;37.756;2023-02-12T00:42:06;3.45;;;3.00;;
42670;SDS011;28283;55.426;37.756;2023-02-12T00:47:07;3.35;;;2.20;;
42670;SDS011;28283;55.426;37.756;2023-02-12T00:52:07;3.45;;;2.58;;
42670;SDS011;28283;55.426;37.756;2023-02-12T00:57:08;3.13;;;2.10;;
42670;SDS011;28283;55.426;37.756;2023-02-12T01:02:08;2.78;;;2.47;;
42670;SDS011;28283;55.426;37.756;2023-02-12T01:07:09;2.35;;;2.15;;
42670;SDS011;28283;55.426;37.756;2023-02-12T01:12:12;2.80;;;2.45;;
42670;SDS011;28283;55.426;37.756;2023-02-12T01:17:13;2.28;;;1.60;;
42670;SDS011;28283;55.426;37.756;2023-02-12T01:22:14;6.55;;;2.45;;
42670;SDS011;28283;55.426;37.756;2023-02-12T01:27:14;3.03;;;2.13;;
42670;SDS011;28283;55.426;37.756;2023-02-12T01:32:15;2.47;;;2.28;;
42670;SDS011;28283;55.426;37.756;2023-02-12T01:37:16;3.80;;;2.05;;
42670;SDS011;28283;55.426;37.756;2023-02-12T01:42:17;5.10;;;3.63;;
42670;SDS011;28283;55.426;37.756;2023-02-12T01:47:20;7.07;;;3.60;;
42670;SDS011;28283;55.426;37.756;2023-02-12T01:52:26;5.20;;;3.10;;
42670;SDS011;28283;55.426;37.756;2023-02-12T01:57:29;4.65;;;3.70;;
42670;SDS011;28283;55.426;37.756;2023-02-12T02:02:33;4.72;;;3.75;;
42670;SDS011;28283;55.426;37.756;2023-02-12T02:07:36;6.43;;;4.32;;
42670;SDS011;28283;55.426;37.756;2023-02-12T02:28:22;8.77;;;4.50;;
42670;SDS011;28283;55.426;37.756;2023-02-12T02:33:50;6.15;;;3.47;;
42670;SDS011;28283;55.426;37.756;2023-02-12T02:39:15;4.15;;;2.92;;
42670;SDS011;28283;55.426;37.756;2023-02-12T02:44:25;7.82;;;4.80;;
42670;SDS011;28283;55.426;37.756;2023-02-12T02:49:32;4.22;;;3.15;;
42670;SDS011;28283;55.426;37.756;2023-02-12T02:54:47;5.63;;;3.83;;
42670;SDS011;28283;55.426;37.756;2023-02-12T02:59:54;6.00;;;1.95;;
42670;SDS011;28283;55.426;37.756;2023-02-12T03:04:58;14.77;;;3.47;;
42670;SDS011;28283;55.426;37.756;2023-02-12T03:10:14;4.68;;;2.80;;
42670;SDS011;28283;55.426;37.756;2023-02-12T03:15:19;1.63;;;1.23;;
42670;SDS011;28283;55.426;37.756;2023-02-12T03:20:32;3.05;;;2.08;;
42670;SDS011;28283;55.426;37.756;2023-02-12T03:41:31;3.95;;;2.58;;
42670;SDS011;28283;55.426;37.756;2023-02-12T03:46:54;4.10;;;2.90;;
42670;SDS011;28283;55.426;37.756;2023-02-12T03:52:04;5.00;;;2.72;;
42670;SDS011;28283;55.426;37.756;2023-02-12T04:07:19;4.20;;;2.60;;
42670;SDS011;28283;55.426;37.756;2023-02-12T04:12:26;5.43;;;2.58;;
42670;SDS011;28283;55.426;37.756;2023-02-12T04:17:38;3.17;;;2.05;;
42670;SDS011;28283;55.426;37.756;2023-02-12T04:33:39;4.30;;;2.35;;
42670;SDS011;28283;55.426;37.756;2023-02-12T04:38:48;2.88;;;1.83;;
42670;SDS011;28283;55.426;37.756;2023-02-12T04:43:53;4.35;;;1.77;;
42670;SDS011;28283;55.426;37.756;2023-02-12T04:53:57;3.08;;;1.65;;
42670;SDS011;28283;55.426;37.756;2023-02-12T05:03:58;3.60;;;2.05;;
42670;SDS011;28283;55.426;37.756;2023-02-12T05:13:59;6.82;;;1.70;;
42670;SDS011;28283;55.426;37.756;2023-02-12T05:19:00;2.70;;;1.67;;
42670;SDS011;28283;55.426;37.756;2023-02-12T05:24:01;4.57;;;2.10;;
42670;SDS011;28283;55.426;37.756;2023-02-12T05:29:02;2.13;;;1.50;;
42670;SDS011;28283;55.426;37.756;2023-02-12T05:39:03;2.17;;;1.40;;
42670;SDS011;28283;55.426;37.756;2023-02-12T05:44:04;7.95;;;1.98;;
42670;SDS011;28283;55.426;37.756;2023-02-12T05:49:05;4.75;;;1.73;;
42670;SDS011;28283;55.426;37.756;2023-02-12T05:54:06;3.13;;;1.23;;
42670;SDS011;28283;55.426;37.756;2023-02-12T05:59:11;3.58;;;1.10;;
42670;SDS011;28283;55.426;37.756;2023-02-12T06:04:15;3.40;;;1.17;;
42670;SDS011;28283;55.426;37.756;2023-02-12T06:09:26;2.90;;;0.80;;
42670;SDS011;28283;55.426;37.756;2023-02-12T06:14:27;3.08;;;0.95;;
42670;SDS011;28283;55.426;37.756;2023-02-12T06:24:28;1.30;;;0.93;;
42670;SDS011;28283;55.426;37.756;2023-02-12T06:34:30;0.73;;;0.73;;
42670;SDS011;28283;55.426;37.756;2023-02-12T06:44:31;5.47;;;1.50;;
42670;SDS011;28283;55.426;37.756;2023-02-12T06:49:31;2.45;;;1.20;;
42670;SDS011;28283;55.426;37.756;2023-02-12T06:59:32;5.32;;;1.20;;
42670;SDS011;28283;55.426;37.756;2023-02-12T07:09:34;1.50;;;0.90;;
42670;SDS011;28283;55.426;37.756;2023-02-12T07:19:35;1.55;;;0.85;;
42670;SDS011;28283;55.426;37.756;2023-02-12T07:29:38;3.33;;;1.40;;
42670;SDS011;28283;55.426;37.756;2023-02-12T07:39:39;5.37;;;0.73;;
42670;SDS011;28283;55.426;37.756;2023-02-12T07:49:40;3.60;;;0.90;;
42670;SDS011;28283;55.426;37.756;2023-02-12T07:59:41;2.88;;;0.77;;
42670;SDS011;28283;55.426;37.756;2023-02-12T08:09:42;9.75;;;1.15;;
42670;SDS011;28283;55.426;37.756;2023-02-12T08:19:44;3.00;;;0.80;;
42670;SDS011;28283;55.426;37.756;2023-02-12T08:29:46;1.23;;;0.70;;
42670;SDS011;28283;55.426;37.756;2023-02-12T08:39:47;2.13;;;0.65;;
42670;SDS011;28283;55.426;37.756;2023-02-12T08:49:48;9.48;;;0.88;;
42670;SDS011;28283;55.426;37.756;2023-02-12T08:54:50;2.30;;;0.60;;
42670;SDS011;28283;55.426;37.756;2023-02-12T09:04:51;2.97;;;1.13;;
42670;SDS011;28283;55.426;37.756;2023-02-12T09:14:52;2.17;;;0.68;;
42670;SDS011;28283;55.426;37.756;2023-02-12T09:19:55;1.42;;;0.68;;
42670;SDS011;28283;55.426;37.756;2023-02-12T09:24:56;1.10;;;0.75;;
42670;SDS011;28283;55.426;37.756;2023-02-12T09:34:59;0.80;;;0.75;;
42670;SDS011;28283;55.426;37.756;2023-02-12T09:40:00;1.05;;;0.65;;
42670;SDS011;28283;55.426;37.756;2023-02-12T09:55:43;2.63;;;0.88;;
42670;SDS011;28283;55.426;37.756;2023-02-12T10:00:45;6.22;;;1.00;;
42670;SDS011;28283;55.426;37.756;2023-02-12T10:10:51;4.22;;;0.50;;
42670;SDS011;28283;55.426;37.756;2023-02-12T10:15:55;2.33;;;0.70;;
42670;SDS011;28283;55.426;37.756;2023-02-12T10:36:43;1.63;;;0.50;;
42670;SDS011;28283;55.426;37.756;2023-02-12T10:46:53;2.92;;;0.60;;
42670;SDS011;28283;55.426;37.756;2023-02-12T10:52:02;1.27;;;0.68;;
42670;SDS011;28283;55.426;37.756;2023-02-12T11:02:32;2.45;;;0.90;;
42670;SDS011;28283;55.426;37.756;2023-02-12T11:07:44;2.15;;;0.93;;
42670;SDS011;28283;55.426;37.756;2023-02-12T11:12:47;2.22;;;0.60;;
42670;SDS011;28283;55.426;37.756;2023-02-12T11:23:02;0.90;;;0.65;;
42670;SDS011;28283;55.426;37.756;2023-02-12T11:33:24;2.30;;;0.50;;
42670;SDS011;28283;55.426;37.756;2023-02-12T11:38:29;2.90;;;0.60;;
42670;SDS011;28283;55.426;37.756;2023-02-12T11:43:36;1.95;;;0.70;;
42670;SDS011;28283;55.426;37.756;2023-02-12T11:48:38;4.18;;;0.68;;
42670;SDS011;28283;55.426;37.756;2023-02-12T11:53:45;3.05;;;0.98;;
42670;SDS011;28283;55.426;37.756;2023-02-12T11:58:50;8.25;;;1.85;;
42670;SDS011;28283;55.426;37.756;2023-02-12T12:03:53;6.50;;;1.27;;
42670;SDS011;28283;55.426;37.756;2023-02-12T12:09:09;2.75;;;1.10;;
42670;SDS011;28283;55.426;37.756;2023-02-12T12:19:32;2.17;;;1.02;;
42670;SDS011;28283;55.426;37.756;2023-02-12T12:29:57;3.10;;;1.08;;
42670;SDS011;28283;55.426;37.756;2023-02-12T12:35:08;1.58;;;0.55;;
42670;SDS011;28283;55.426;37.756;2023-02-12T12:45:45;1.58;;;0.40;;
42670;SDS011;28283;55.426;37.756;2023-02-12T13:28:56;2.65;;;0.70;;
42670;SDS011;28283;55.426;37.756;2023-02-12T13:33:47;3.25;;;2.25;;
42670;SDS011;28283;55.426;37.756;2023-02-12T13:38:55;0.85;;;0.43;;
42670;SDS011;28283;55.426;37.756;2023-02-12T13:44:04;0.95;;;0.55;;
42670;SDS011;28283;55.426;37.756;2023-02-12T14:10:02;1.15;;;0.70;;
42670;SDS011;28283;55.426;37.756;2023-02-12T14:15:10;2.83;;;0.95;;
42670;SDS011;28283;55.426;37.756;2023-02-12T14:20:29;1.38;;;0.75;;
42670;SDS011;28283;55.426;37.756;2023-02-12T14:25:38;2.33;;;0.60;;
42670;SDS011;28283;55.426;37.756;2023-02-12T14:30:43;2.72;;;0.60;;
42670;SDS011;28283;55.426;37.756;2023-02-12T14:45:49;2.75;;;1.02;;
42670;SDS011;28283;55.426;37.756;2023-02-12T14:50:50;1.38;;;0.90;;
42670;SDS011;28283;55.426;37.756;2023-02-12T14:55:52;1.85;;;1.00;;
42670;SDS011;28283;55.426;37.756;2023-02-12T15:00:54;1.48;;;0.57;;
42670;SDS011;28283;55.426;37.756;2023-02-12T15:06:02;2.15;;;1.02;;
42670;SDS011;28283;55.426;37.756;2023-02-12T15:21:51;3.75;;;1.58;;
42670;SDS011;28283;55.426;37.756;2023-02-12T15:26:56;6.57;;;1.30;;
42670;SDS011;28283;55.426;37.756;2023-02-12T15:32:04;1.33;;;0.90;;
42670;SDS011;28283;55.426;37.756;2023-02-12T15:37:07;1.80;;;1.02;;
42670;SDS011;28283;55.426;37.756;2023-02-12T15:53:31;4.88;;;1.67;;
42670;SDS011;28283;55.426;37.756;2023-02-12T15:58:37;5.38;;;1.42;;
42670;SDS011;28283;55.426;37.756;2023-02-12T16:03:50;4.07;;;1.90;;
42670;SDS011;28283;55.426;37.756;2023-02-12T16:09:04;8.40;;;1.73;;
42670;SDS011;28283;55.426;37.756;2023-02-12T16:14:17;6.38;;;2.30;;
42670;SDS011;28283;55.426;37.756;2023-02-12T16:19:23;5.88;;;2.33;;
42670;SDS011;28283;55.426;37.756;2023-02-12T16:29:37;1.92;;;1.20;;
42670;SDS011;28283;55.426;37.756;2023-02-12T16:34:43;4.40;;;1.58;;
42670;SDS011;28283;55.426;37.756;2023-02-12T16:44:54;7.63;;;1.05;;
42670;SDS011;28283;55.426;37.756;2023-02-12T16:50:00;3.70;;;1.40;;
42670;SDS011;28283;55.426;37.756;2023-02-12T16:55:01;1.73;;;0.70;;
42670;SDS011;28283;55.426;37.756;2023-02-12T17:00:03;2.17;;;1.02;;
42670;SDS011;28283;55.426;37.756;2023-02-12T17:05:05;2.55;;;0.73;;
42670;SDS011;28283;55.426;37.756;2023-02-12T17:10:06;1.17;;;0.60;;
42670;SDS011;28283;55.426;37.756;2023-02-12T17:15:12;6.13;;;1.27;;
42670;SDS011;28283;55.426;37.756;2023-02-12T17:20:19;3.33;;;1.10;;
42670;SDS011;28283;55.426;37.756;2023-02-12T17:25:20;5.22;;;1.73;;
42670;SDS011;28283;55.426;37.756;2023-02-12T17:30:21;3.17;;;0.82;;
42670;SDS011;28283;55.426;37.756;2023-02-12T17:35:23;4.03;;;1.65;;
42670;SDS011;28283;55.426;37.756;2023-02-12T17:40:23;3.83;;;1.58;;
42670;SDS011;28283;55.426;37.756;2023-02-12T17:50:25;1.85;;;0.50;;
42670;SDS011;28283;55.426;37.756;2023-02-12T17:55:25;0.80;;;0.60;;
42670;SDS011;28283;55.426;37.756;2023-02-12T18:00:26;1.40;;;1.02;;
42670;SDS011;28283;55.426;37.756;2023-02-12T18:05:27;1.75;;;0.95;;
42670;SDS011;28283;55.426;37.756;2023-02-12T18:10:27;1.92;;;0.60;;
42670;SDS011;28283;55.426;37.756;2023-02-12T18:15:28;0.98;;;0.70;;
42670;SDS011;28283;55.426;37.756;2023-02-12T18:20:29;2.25;;;0.90;;
42670;SDS011;28283;55.426;37.756;2023-02-12T18:25:29;1.33;;;0.75;;
42670;SDS011;28283;55.426;37.756;2023-02-12T18:30:30;2.47;;;1.25;;
42670;SDS011;28283;55.426;37.756;2023-02-12T18:35:31;3.05;;;1.90;;
42670;SDS011;28283;55.426;37.756;2023-02-12T18:40:32;3.20;;;1.58;;
42670;SDS011;28283;55.426;37.756;2023-02-12T18:45:33;3.25;;;1.20;;
42670;SDS011;28283;55.426;37.756;2023-02-12T18:50:34;1.85;;;0.90;;
42670;SDS011;28283;55.426;37.756;2023-02-12T18:55:41;2.10;;;1.10;;
42670;SDS011;28283;55.426;37.756;2023-02-12T19:00:41;3.38;;;1.17;;
42670;SDS011;28283;55.426;37.756;2023-02-12T19:05:43;10.10;;;1.17;;
42670;SDS011;28283;55.426;37.756;2023-02-12T19:10:43;2.42;;;1.05;;
42670;SDS011;28283;55.426;37.756;2023-02-12T19:15:47;2.67;;;0.90;;
42670;SDS011;28283;55.426;37.756;2023-02-12T19:20:48;2.03;;;0.93;;
42670;SDS011;28283;55.426;37.756;2023-02-12T19:25:48;3.15;;;1.35;;
42670;SDS011;28283;55.426;37.756;2023-02-12T19:30:49;1.95;;;0.85;;
42670;SDS011;28283;55.426;37.756;2023-02-12T19:35:50;3.35;;;1.55;;
42670;SDS011;28283;55.426;37.756;2023-02-12T19:40:50;3.78;;;0.60;;
42670;SDS011;28283;55.426;37.756;2023-02-12T19:45:51;0.80;;;0.75;;
42670;SDS011;28283;55.426;37.756;2023-02-12T19:50:51;1.35;;;1.23;;
42670;SDS011;28283;55.426;37.756;2023-02-12T19:55:52;5.45;;;1.25;;
42670;SDS011;28283;55.426;37.756;2023-02-12T20:00:53;2.72;;;1.15;;
42670;SDS011;28283;55.426;37.756;2023-02-12T20:06:04;1.98;;;1.02;;
42670;SDS011;28283;55.426;37.756;2023-02-12T20:11:12;1.02;;;0.90;;
42670;SDS011;28283;55.426;37.756;2023-02-12T20:16:20;3.95;;;1.50;;
42670;SDS011;28283;55.426;37.756;2023-02-12T20:21:23;5.30;;;1.38;;
42670;SDS011;28283;55.426;37.756;2023-02-12T20:26:28;2.00;;;0.60;;
42670;SDS011;28283;55.426;37.756;2023-02-12T20:31:30;4.05;;;1.63;;
42670;SDS011;28283;55.426;37.756;2023-02-12T20:36:34;1.08;;;0.63;;
42670;SDS011;28283;55.426;37.756;2023-02-12T20:41:36;1.30;;;1.08;;
42670;SDS011;28283;55.426;37.756;2023-02-12T20:46:39;4.10;;;1.85;;
42670;SDS011;28283;55.426;37.756;2023-02-12T20:51:42;2.15;;;1.25;;
42670;SDS011;28283;55.426;37.756;2023-02-12T20:56:48;1.77;;;1.08;;
42670;SDS011;28283;55.426;37.756;2023-02-12T21:01:49;1.60;;;1.20;;
42670;SDS011;28283;55.426;37.756;2023-02-12T21:06:50;8.55;;;1.42;;
42670;SDS011;28283;55.426;37.756;2023-02-12T21:11:50;2.25;;;1.83;;
42670;SDS011;28283;55.426;37.756;2023-02-12T21:16:52;8.60;;;1.85;;
42670;SDS011;28283;55.426;37.756;2023-02-12T21:21:54;6.15;;;2.35;;
42670;SDS011;28283;55.426;37.756;2023-02-12T21:26:54;6.13;;;2.05;;
42670;SDS011;28283;55.426;37.756;2023-02-12T21:31:55;5.78;;;2.25;;
42670;SDS011;28283;55.426;37.756;2023-02-12T21:36:56;1.70;;;1.30;;
42670;SDS011;28283;55.426;37.756;2023-02-12T21:41:57;8.38;;;2.58;;
42670;SDS011;28283;55.426;37.756;2023-02-12T21:47:01;3.53;;;2.17;;
42670;SDS011;28283;55.426;37.756;2023-02-12T21:52:02;4.93;;;2.80;;
42670;SDS011;28283;55.426;37.756;2023-02-12T21:57:05;3.58;;;2.25;;
42670;SDS011;28283;55.426;37.756;2023-02-12T22:02:07;10.68;;;4.13;;
42670;SDS011;28283;55.426;37.756;2023-02-12T22:07:08;6.50;;;2.70;;
42670;SDS011;28283;55.426;37.756;2023-02-12T22:12:09;4.00;;;2.33;;
42670;SDS011;28283;55.426;37.756;2023-02-12T22:17:09;13.70;;;3.55;;
42670;SDS011;28283;55.426;37.756;2023-02-12T22:22:10;4.43;;;2.30;;
42670;SDS011;28283;55.426;37.756;2023-02-12T22:27:11;4.18;;;1.77;;
42670;SDS011;28283;55.426;37.756;2023-02-12T22:32:12;7.00;;;1.33;;
42670;SDS011;28283;55.426;37.756;2023-02-12T22:37:13;4.00;;;2.42;;
42670;SDS011;28283;55.426;37.756;2023-02-12T22:42:14;2.65;;;1.67;;
42670;SDS011;28283;55.426;37.756;2023-02-12T22:47:14;4.03;;;1.33;;
42670;SDS011;28283;55.426;37.756;2023-02-12T22:52:15;1.83;;;1.05;;
42670;SDS011;28283;55.426;37.756;2023-02-12T22:57:16;1.63;;;1.17;;
42670;SDS011;28283;55.426;37.756;2023-02-12T23:02:17;5.22;;;1.20;;
42670;SDS011;28283;55.426;37.756;2023-02-12T23:07:17;2.13;;;1.40;;
42670;SDS011;28283;55.426;37.756;2023-02-12T23:12:18;2.70;;;1.65;;
42670;SDS011;28283;55.426;37.756;2023-02-12T23:17:19;5.03;;;1.65;;
42670;SDS011;28283;55.426;37.756;2023-02-12T23:22:19;4.80;;;1.65;;
42670;SDS011;28283;55.426;37.756;2023-02-12T23:27:20;3.55;;;1.20;;
42670;SDS011;28283;55.426;37.756;2023-02-12T23:32:20;2.72;;;1.10;;
42670;SDS011;28283;55.426;37.756;2023-02-12T23:37:21;7.30;;;2.40;;
42670;SDS011;28283;55.426;37.756;2023-02-12T23:42:22;2.30;;;2.08;;
42670;SDS011;28283;55.426;37.756;2023-02-12T23:47:23;4.15;;;1.30;;
42670;SDS011;28283;55.426;37.756;2023-02-12T23:52:24;2.05;;;1.27;;
42670;SDS011;28283;55.426;37.756;2023-02-12T23:57:24;2.17;;;1.13;;
